sensor_id;sensor_type;location;lat;lon;timestamp;P1;durP1;ratioP1;P2;durP2;ratioP2
17169;SDS011;8700;48.222;16.342;2023-07-09T00:01:00;8.48;;;7.75;;
17169;SDS011;8700;48.222;16.342;2023-07-09T00:04:22;9.10;;;7.88;;
17169;SDS011;8700;48.222;16.342;2023-07-09T00:07:44;9.43;;;8.50;;
17169;SDS011;8700;48.222;16.342;2023-07-09T00:11:06;8.45;;;7.75;;
17169;SDS011;8700;48.222;16.342;2023-07-09T00:14:27;9.65;;;8.65;;
17169;SDS011;8700;48.222;16.342;2023-07-09T00:17:48;9.38;;;8.57;;
17169;SDS011;8700;48.222;16.342;2023-07-09T00:21:11;8.70;;;7.50;;
17169;SDS011;8700;48.222;16.342;2023-07-09T00:24:32;9.00;;;8.30;;
17169;SDS011;8700;48.222;16.342;2023-07-09T00:27:54;8.82;;;8.07;;
17169;SDS011;8700;48.222;16.342;2023-07-09T00:31:16;9.90;;;8.93;;
17169;SDS011;8700;48.222;16.342;2023-07-09T00:34:38;9.52;;;8.65;;
17169;SDS011;8700;48.222;16.342;2023-07-09T00:38:00;10.05;;;9.15;;
17169;SDS011;8700;48.222;16.342;2023-07-09T00:41:22;9.65;;;8.95;;
17169;SDS011;8700;48.222;16.342;2023-07-09T00:44:44;9.60;;;8.93;;
17169;SDS011;8700;48.222;16.342;2023-07-09T00:48:09;9.00;;;8.18;;
17169;SDS011;8700;48.222;16.342;2023-07-09T00:51:36;10.45;;;9.43;;
17169;SDS011;8700;48.222;16.342;2023-07-09T00:55:03;9.32;;;8.63;;
17169;SDS011;8700;48.222;16.342;2023-07-09T00:58:30;9.77;;;8.77;;
17169;SDS011;8700;48.222;16.342;2023-07-09T01:01:53;9.07;;;8.35;;
17169;SDS011;8700;48.222;16.342;2023-07-09T01:05:15;9.23;;;8.43;;
17169;SDS011;8700;48.222;16.342;2023-07-09T01:08:39;9.50;;;8.73;;
17169;SDS011;8700;48.222;16.342;2023-07-09T01:12:04;9.30;;;8.50;;
17169;SDS011;8700;48.222;16.342;2023-07-09T01:15:28;8.55;;;7.75;;
17169;SDS011;8700;48.222;16.342;2023-07-09T01:18:53;11.38;;;8.35;;
17169;SDS011;8700;48.222;16.342;2023-07-09T01:22:17;9.15;;;8.23;;
17169;SDS011;8700;48.222;16.342;2023-07-09T01:25:42;9.70;;;8.90;;
17169;SDS011;8700;48.222;16.342;2023-07-09T01:29:05;8.70;;;7.85;;
17169;SDS011;8700;48.222;16.342;2023-07-09T01:32:27;10.23;;;8.05;;
17169;SDS011;8700;48.222;16.342;2023-07-09T01:35:48;9.88;;;9.07;;
17169;SDS011;8700;48.222;16.342;2023-07-09T01:39:11;9.88;;;9.05;;
17169;SDS011;8700;48.222;16.342;2023-07-09T01:42:32;9.73;;;8.88;;
17169;SDS011;8700;48.222;16.342;2023-07-09T01:45:53;9.30;;;8.60;;
17169;SDS011;8700;48.222;16.342;2023-07-09T01:49:16;10.00;;;8.68;;
17169;SDS011;8700;48.222;16.342;2023-07-09T01:52:49;9.48;;;8.43;;
17169;SDS011;8700;48.222;16.342;2023-07-09T01:56:12;9.40;;;8.57;;
17169;SDS011;8700;48.222;16.342;2023-07-09T01:59:33;9.63;;;8.70;;
17169;SDS011;8700;48.222;16.342;2023-07-09T02:03:00;9.73;;;8.93;;
17169;SDS011;8700;48.222;16.342;2023-07-09T02:06:22;9.82;;;8.80;;
17169;SDS011;8700;48.222;16.342;2023-07-09T02:09:43;9.43;;;8.63;;
17169;SDS011;8700;48.222;16.342;2023-07-09T02:13:07;9.30;;;8.50;;
17169;SDS011;8700;48.222;16.342;2023-07-09T02:16:28;10.25;;;9.40;;
17169;SDS011;8700;48.222;16.342;2023-07-09T02:19:51;9.27;;;8.48;;
17169;SDS011;8700;48.222;16.342;2023-07-09T02:23:12;10.00;;;9.10;;
17169;SDS011;8700;48.222;16.342;2023-07-09T02:26:34;9.38;;;8.63;;
17169;SDS011;8700;48.222;16.342;2023-07-09T02:29:56;9.90;;;8.93;;
17169;SDS011;8700;48.222;16.342;2023-07-09T02:33:18;9.57;;;8.82;;
17169;SDS011;8700;48.222;16.342;2023-07-09T02:36:39;9.18;;;8.48;;
17169;SDS011;8700;48.222;16.342;2023-07-09T02:40:05;8.90;;;8.30;;
17169;SDS011;8700;48.222;16.342;2023-07-09T02:43:28;8.95;;;8.25;;
17169;SDS011;8700;48.222;16.342;2023-07-09T02:46:52;10.18;;;9.27;;
17169;SDS011;8700;48.222;16.342;2023-07-09T02:50:13;8.93;;;8.23;;
17169;SDS011;8700;48.222;16.342;2023-07-09T02:53:34;8.63;;;7.93;;
17169;SDS011;8700;48.222;16.342;2023-07-09T02:56:56;9.30;;;8.70;;
17169;SDS011;8700;48.222;16.342;2023-07-09T03:00:17;9.63;;;8.73;;
17169;SDS011;8700;48.222;16.342;2023-07-09T03:03:40;9.73;;;8.73;;
17169;SDS011;8700;48.222;16.342;2023-07-09T03:07:01;10.55;;;8.63;;
17169;SDS011;8700;48.222;16.342;2023-07-09T03:10:23;10.68;;;9.48;;
17169;SDS011;8700;48.222;16.342;2023-07-09T03:13:45;9.70;;;8.90;;
17169;SDS011;8700;48.222;16.342;2023-07-09T03:17:08;9.45;;;8.50;;
17169;SDS011;8700;48.222;16.342;2023-07-09T03:20:35;9.32;;;8.52;;
17169;SDS011;8700;48.222;16.342;2023-07-09T03:23:57;9.02;;;8.32;;
17169;SDS011;8700;48.222;16.342;2023-07-09T03:27:19;9.45;;;8.65;;
17169;SDS011;8700;48.222;16.342;2023-07-09T03:30:41;10.48;;;9.40;;
17169;SDS011;8700;48.222;16.342;2023-07-09T03:34:02;8.50;;;7.85;;
17169;SDS011;8700;48.222;16.342;2023-07-09T03:37:25;9.55;;;8.82;;
17169;SDS011;8700;48.222;16.342;2023-07-09T03:40:49;9.57;;;8.88;;
17169;SDS011;8700;48.222;16.342;2023-07-09T03:44:11;9.55;;;8.70;;
17169;SDS011;8700;48.222;16.342;2023-07-09T03:47:32;10.27;;;9.48;;
17169;SDS011;8700;48.222;16.342;2023-07-09T03:50:53;9.15;;;8.35;;
17169;SDS011;8700;48.222;16.342;2023-07-09T03:54:16;9.30;;;8.60;;
17169;SDS011;8700;48.222;16.342;2023-07-09T03:57:38;9.77;;;8.98;;
17169;SDS011;8700;48.222;16.342;2023-07-09T04:00:59;12.02;;;10.05;;
17169;SDS011;8700;48.222;16.342;2023-07-09T04:04:20;10.48;;;9.65;;
17169;SDS011;8700;48.222;16.342;2023-07-09T04:07:42;9.38;;;8.57;;
17169;SDS011;8700;48.222;16.342;2023-07-09T04:11:05;8.98;;;8.15;;
17169;SDS011;8700;48.222;16.342;2023-07-09T04:14:27;9.68;;;8.68;;
17169;SDS011;8700;48.222;16.342;2023-07-09T04:17:49;9.82;;;8.95;;
17169;SDS011;8700;48.222;16.342;2023-07-09T04:21:11;9.90;;;8.95;;
17169;SDS011;8700;48.222;16.342;2023-07-09T04:24:40;10.80;;;9.90;;
17169;SDS011;8700;48.222;16.342;2023-07-09T04:28:03;9.57;;;8.85;;
17169;SDS011;8700;48.222;16.342;2023-07-09T04:31:25;13.20;;;9.63;;
17169;SDS011;8700;48.222;16.342;2023-07-09T04:34:46;10.00;;;9.20;;
17169;SDS011;8700;48.222;16.342;2023-07-09T04:38:07;10.70;;;9.68;;
17169;SDS011;8700;48.222;16.342;2023-07-09T04:41:29;10.57;;;9.57;;
17169;SDS011;8700;48.222;16.342;2023-07-09T04:44:52;10.52;;;9.73;;
17169;SDS011;8700;48.222;16.342;2023-07-09T04:48:16;10.30;;;9.50;;
17169;SDS011;8700;48.222;16.342;2023-07-09T04:51:37;10.90;;;9.82;;
17169;SDS011;8700;48.222;16.342;2023-07-09T04:54:58;10.90;;;9.80;;
17169;SDS011;8700;48.222;16.342;2023-07-09T04:58:22;10.65;;;9.75;;
17169;SDS011;8700;48.222;16.342;2023-07-09T05:01:45;10.10;;;9.38;;
17169;SDS011;8700;48.222;16.342;2023-07-09T05:05:06;10.23;;;9.32;;
17169;SDS011;8700;48.222;16.342;2023-07-09T05:08:28;8.80;;;8.18;;
17169;SDS011;8700;48.222;16.342;2023-07-09T05:11:50;9.77;;;8.98;;
17169;SDS011;8700;48.222;16.342;2023-07-09T05:15:12;10.88;;;9.77;;
17169;SDS011;8700;48.222;16.342;2023-07-09T05:18:36;9.38;;;8.60;;
17169;SDS011;8700;48.222;16.342;2023-07-09T05:21:57;9.25;;;8.40;;
17169;SDS011;8700;48.222;16.342;2023-07-09T05:25:18;10.57;;;9.65;;
17169;SDS011;8700;48.222;16.342;2023-07-09T05:28:40;9.75;;;8.95;;
17169;SDS011;8700;48.222;16.342;2023-07-09T05:32:01;9.48;;;8.57;;
17169;SDS011;8700;48.222;16.342;2023-07-09T05:35:24;9.63;;;8.93;;
17169;SDS011;8700;48.222;16.342;2023-07-09T05:38:45;10.77;;;9.98;;
17169;SDS011;8700;48.222;16.342;2023-07-09T05:42:07;10.20;;;9.30;;
17169;SDS011;8700;48.222;16.342;2023-07-09T05:45:29;10.18;;;9.32;;
17169;SDS011;8700;48.222;16.342;2023-07-09T05:48:54;10.45;;;9.55;;
17169;SDS011;8700;48.222;16.342;2023-07-09T05:52:20;10.63;;;9.52;;
17169;SDS011;8700;48.222;16.342;2023-07-09T05:55:43;11.68;;;10.68;;
17169;SDS011;8700;48.222;16.342;2023-07-09T05:59:04;10.15;;;9.32;;
17169;SDS011;8700;48.222;16.342;2023-07-09T06:02:25;10.77;;;9.88;;
17169;SDS011;8700;48.222;16.342;2023-07-09T06:05:46;11.23;;;10.23;;
17169;SDS011;8700;48.222;16.342;2023-07-09T06:09:10;11.48;;;10.02;;
17169;SDS011;8700;48.222;16.342;2023-07-09T06:12:31;10.50;;;9.70;;
17169;SDS011;8700;48.222;16.342;2023-07-09T06:15:54;11.25;;;10.35;;
17169;SDS011;8700;48.222;16.342;2023-07-09T06:19:20;10.88;;;9.98;;
17169;SDS011;8700;48.222;16.342;2023-07-09T06:22:41;10.77;;;9.95;;
17169;SDS011;8700;48.222;16.342;2023-07-09T06:26:05;11.07;;;10.15;;
17169;SDS011;8700;48.222;16.342;2023-07-09T06:29:27;10.57;;;9.70;;
17169;SDS011;8700;48.222;16.342;2023-07-09T06:32:48;10.77;;;9.82;;
17169;SDS011;8700;48.222;16.342;2023-07-09T06:36:10;10.55;;;9.57;;
17169;SDS011;8700;48.222;16.342;2023-07-09T06:39:31;9.95;;;9.10;;
17169;SDS011;8700;48.222;16.342;2023-07-09T06:42:54;10.75;;;9.75;;
17169;SDS011;8700;48.222;16.342;2023-07-09T06:46:15;10.73;;;9.68;;
17169;SDS011;8700;48.222;16.342;2023-07-09T06:49:39;11.20;;;10.05;;
17169;SDS011;8700;48.222;16.342;2023-07-09T06:53:00;10.88;;;10.05;;
17169;SDS011;8700;48.222;16.342;2023-07-09T06:56:21;11.15;;;10.25;;
17169;SDS011;8700;48.222;16.342;2023-07-09T06:59:44;11.55;;;10.55;;
17169;SDS011;8700;48.222;16.342;2023-07-09T07:03:08;10.35;;;9.52;;
17169;SDS011;8700;48.222;16.342;2023-07-09T07:06:30;10.02;;;9.15;;
17169;SDS011;8700;48.222;16.342;2023-07-09T07:09:51;11.18;;;10.38;;
17169;SDS011;8700;48.222;16.342;2023-07-09T07:13:13;10.30;;;9.43;;
17169;SDS011;8700;48.222;16.342;2023-07-09T07:16:35;10.35;;;9.52;;
17169;SDS011;8700;48.222;16.342;2023-07-09T07:19:57;11.32;;;9.80;;
17169;SDS011;8700;48.222;16.342;2023-07-09T07:23:21;10.32;;;9.43;;
17169;SDS011;8700;48.222;16.342;2023-07-09T07:26:43;10.70;;;9.75;;
17169;SDS011;8700;48.222;16.342;2023-07-09T07:30:05;11.45;;;10.23;;
17169;SDS011;8700;48.222;16.342;2023-07-09T07:33:30;10.57;;;9.68;;
17169;SDS011;8700;48.222;16.342;2023-07-09T07:36:51;9.55;;;8.85;;
17169;SDS011;8700;48.222;16.342;2023-07-09T07:40:12;8.88;;;8.27;;
17169;SDS011;8700;48.222;16.342;2023-07-09T07:43:33;8.88;;;7.97;;
17169;SDS011;8700;48.222;16.342;2023-07-09T07:46:55;9.27;;;8.45;;
17169;SDS011;8700;48.222;16.342;2023-07-09T07:50:17;8.93;;;8.18;;
17169;SDS011;8700;48.222;16.342;2023-07-09T07:53:39;8.93;;;8.18;;
17169;SDS011;8700;48.222;16.342;2023-07-09T07:57:04;8.20;;;7.70;;
17169;SDS011;8700;48.222;16.342;2023-07-09T08:00:33;8.20;;;7.68;;
17169;SDS011;8700;48.222;16.342;2023-07-09T08:03:54;8.70;;;8.10;;
17169;SDS011;8700;48.222;16.342;2023-07-09T08:07:17;8.00;;;7.50;;
17169;SDS011;8700;48.222;16.342;2023-07-09T08:10:39;9.50;;;8.57;;
17169;SDS011;8700;48.222;16.342;2023-07-09T08:14:00;7.97;;;7.38;;
17169;SDS011;8700;48.222;16.342;2023-07-09T08:17:22;8.18;;;7.57;;
17169;SDS011;8700;48.222;16.342;2023-07-09T08:20:45;8.27;;;7.68;;
17169;SDS011;8700;48.222;16.342;2023-07-09T08:24:08;7.95;;;7.20;;
17169;SDS011;8700;48.222;16.342;2023-07-09T08:27:29;8.45;;;7.72;;
17169;SDS011;8700;48.222;16.342;2023-07-09T08:30:51;7.50;;;7.00;;
17169;SDS011;8700;48.222;16.342;2023-07-09T08:34:12;7.82;;;7.32;;
17169;SDS011;8700;48.222;16.342;2023-07-09T08:37:37;8.48;;;7.88;;
17169;SDS011;8700;48.222;16.342;2023-07-09T08:41:00;7.63;;;7.22;;
17169;SDS011;8700;48.222;16.342;2023-07-09T08:44:35;8.25;;;7.55;;
17169;SDS011;8700;48.222;16.342;2023-07-09T08:48:17;8.73;;;8.05;;
17169;SDS011;8700;48.222;16.342;2023-07-09T08:51:45;7.28;;;6.65;;
17169;SDS011;8700;48.222;16.342;2023-07-09T08:55:09;7.03;;;6.63;;
17169;SDS011;8700;48.222;16.342;2023-07-09T08:58:34;7.60;;;7.10;;
17169;SDS011;8700;48.222;16.342;2023-07-09T09:01:57;7.93;;;7.32;;
17169;SDS011;8700;48.222;16.342;2023-07-09T09:05:21;8.35;;;7.68;;
17169;SDS011;8700;48.222;16.342;2023-07-09T09:08:46;8.65;;;8.05;;
17169;SDS011;8700;48.222;16.342;2023-07-09T09:12:15;7.13;;;6.70;;
17169;SDS011;8700;48.222;16.342;2023-07-09T09:15:45;8.20;;;7.43;;
17169;SDS011;8700;48.222;16.342;2023-07-09T09:19:12;7.90;;;7.30;;
17169;SDS011;8700;48.222;16.342;2023-07-09T09:22:42;7.38;;;6.97;;
17169;SDS011;8700;48.222;16.342;2023-07-09T09:26:09;7.88;;;7.38;;
17169;SDS011;8700;48.222;16.342;2023-07-09T09:29:38;7.93;;;7.13;;
17169;SDS011;8700;48.222;16.342;2023-07-09T09:33:01;7.88;;;7.22;;
17169;SDS011;8700;48.222;16.342;2023-07-09T09:36:26;7.45;;;6.93;;
17169;SDS011;8700;48.222;16.342;2023-07-09T09:39:50;6.65;;;6.25;;
17169;SDS011;8700;48.222;16.342;2023-07-09T09:43:13;7.22;;;6.72;;
17169;SDS011;8700;48.222;16.342;2023-07-09T09:46:36;7.53;;;6.95;;
17169;SDS011;8700;48.222;16.342;2023-07-09T09:49:59;9.55;;;8.77;;
17169;SDS011;8700;48.222;16.342;2023-07-09T09:53:21;8.93;;;8.32;;
17169;SDS011;8700;48.222;16.342;2023-07-09T09:56:44;7.22;;;6.72;;
17169;SDS011;8700;48.222;16.342;2023-07-09T10:00:12;7.45;;;6.82;;
17169;SDS011;8700;48.222;16.342;2023-07-09T10:03:37;7.80;;;7.30;;
17169;SDS011;8700;48.222;16.342;2023-07-09T10:07:02;8.18;;;7.60;;
17169;SDS011;8700;48.222;16.342;2023-07-09T10:10:28;8.00;;;7.50;;
17169;SDS011;8700;48.222;16.342;2023-07-09T10:13:53;7.50;;;7.00;;
17169;SDS011;8700;48.222;16.342;2023-07-09T10:17:21;8.55;;;7.88;;
17169;SDS011;8700;48.222;16.342;2023-07-09T10:20:59;8.30;;;7.80;;
17169;SDS011;8700;48.222;16.342;2023-07-09T10:32:10;9.18;;;8.35;;
17169;SDS011;8700;48.222;16.342;2023-07-09T10:35:43;8.98;;;8.15;;
17169;SDS011;8700;48.222;16.342;2023-07-09T10:39:12;8.35;;;7.85;;
17169;SDS011;8700;48.222;16.342;2023-07-09T10:42:42;8.30;;;7.70;;
17169;SDS011;8700;48.222;16.342;2023-07-09T10:46:09;8.10;;;7.43;;
17169;SDS011;8700;48.222;16.342;2023-07-09T10:49:37;7.60;;;7.10;;
17169;SDS011;8700;48.222;16.342;2023-07-09T10:53:04;7.90;;;7.30;;
17169;SDS011;8700;48.222;16.342;2023-07-09T10:56:33;8.15;;;7.55;;
17169;SDS011;8700;48.222;16.342;2023-07-09T10:59:57;7.45;;;7.00;;
17169;SDS011;8700;48.222;16.342;2023-07-09T11:03:22;7.50;;;7.00;;
17169;SDS011;8700;48.222;16.342;2023-07-09T11:06:51;8.45;;;7.95;;
17169;SDS011;8700;48.222;16.342;2023-07-09T11:10:17;8.63;;;7.85;;
17169;SDS011;8700;48.222;16.342;2023-07-09T11:13:44;9.40;;;8.52;;
17169;SDS011;8700;48.222;16.342;2023-07-09T11:17:14;8.02;;;7.53;;
17169;SDS011;8700;48.222;16.342;2023-07-09T11:20:42;7.65;;;7.07;;
17169;SDS011;8700;48.222;16.342;2023-07-09T11:24:05;7.90;;;7.40;;
17169;SDS011;8700;48.222;16.342;2023-07-09T11:27:48;8.77;;;8.18;;
17169;SDS011;8700;48.222;16.342;2023-07-09T11:31:17;7.80;;;7.30;;
17169;SDS011;8700;48.222;16.342;2023-07-09T11:34:45;8.70;;;7.95;;
17169;SDS011;8700;48.222;16.342;2023-07-09T11:38:08;9.55;;;8.77;;
17169;SDS011;8700;48.222;16.342;2023-07-09T11:41:38;6.22;;;5.78;;
17169;SDS011;8700;48.222;16.342;2023-07-09T11:45:02;6.35;;;5.85;;
17169;SDS011;8700;48.222;16.342;2023-07-09T11:48:29;5.07;;;4.68;;
17169;SDS011;8700;48.222;16.342;2023-07-09T11:51:57;5.80;;;5.30;;
17169;SDS011;8700;48.222;16.342;2023-07-09T11:55:25;6.25;;;5.75;;
17169;SDS011;8700;48.222;16.342;2023-07-09T11:58:48;6.28;;;5.78;;
17169;SDS011;8700;48.222;16.342;2023-07-09T12:02:16;5.47;;;5.18;;
17169;SDS011;8700;48.222;16.342;2023-07-09T12:05:39;6.82;;;6.07;;
17169;SDS011;8700;48.222;16.342;2023-07-09T12:09:08;6.43;;;5.88;;
17169;SDS011;8700;48.222;16.342;2023-07-09T12:12:34;6.35;;;5.85;;
17169;SDS011;8700;48.222;16.342;2023-07-09T12:15:56;5.97;;;5.57;;
17169;SDS011;8700;48.222;16.342;2023-07-09T12:19:18;6.13;;;5.70;;
17169;SDS011;8700;48.222;16.342;2023-07-09T12:22:43;7.13;;;6.45;;
17169;SDS011;8700;48.222;16.342;2023-07-09T12:26:10;5.72;;;5.22;;
17169;SDS011;8700;48.222;16.342;2023-07-09T12:29:34;7.28;;;6.72;;
17169;SDS011;8700;48.222;16.342;2023-07-09T12:32:56;6.65;;;6.05;;
17169;SDS011;8700;48.222;16.342;2023-07-09T12:36:22;5.78;;;5.30;;
17169;SDS011;8700;48.222;16.342;2023-07-09T12:39:48;5.85;;;5.45;;
17169;SDS011;8700;48.222;16.342;2023-07-09T12:43:13;6.72;;;6.13;;
17169;SDS011;8700;48.222;16.342;2023-07-09T12:46:37;5.95;;;5.53;;
17169;SDS011;8700;48.222;16.342;2023-07-09T12:50:11;5.75;;;5.35;;
17169;SDS011;8700;48.222;16.342;2023-07-09T12:53:39;7.05;;;5.40;;
17169;SDS011;8700;48.222;16.342;2023-07-09T12:57:00;6.07;;;5.68;;
17169;SDS011;8700;48.222;16.342;2023-07-09T13:00:35;6.10;;;5.50;;
17169;SDS011;8700;48.222;16.342;2023-07-09T13:04:00;5.80;;;5.35;;
17169;SDS011;8700;48.222;16.342;2023-07-09T13:07:30;5.18;;;4.88;;
17169;SDS011;8700;48.222;16.342;2023-07-09T13:10:54;5.93;;;5.43;;
17169;SDS011;8700;48.222;16.342;2023-07-09T13:14:17;6.07;;;5.57;;
17169;SDS011;8700;48.222;16.342;2023-07-09T13:17:42;6.05;;;5.55;;
17169;SDS011;8700;48.222;16.342;2023-07-09T13:21:05;6.63;;;5.45;;
17169;SDS011;8700;48.222;16.342;2023-07-09T13:24:36;5.32;;;4.72;;
17169;SDS011;8700;48.222;16.342;2023-07-09T13:27:58;5.53;;;5.13;;
17169;SDS011;8700;48.222;16.342;2023-07-09T13:31:20;6.55;;;5.95;;
17169;SDS011;8700;48.222;16.342;2023-07-09T13:34:45;5.90;;;5.30;;
17169;SDS011;8700;48.222;16.342;2023-07-09T13:38:13;5.55;;;5.15;;
17169;SDS011;8700;48.222;16.342;2023-07-09T13:41:35;5.55;;;5.22;;
17169;SDS011;8700;48.222;16.342;2023-07-09T13:44:57;6.10;;;5.60;;
17169;SDS011;8700;48.222;16.342;2023-07-09T13:48:19;5.00;;;4.60;;
17169;SDS011;8700;48.222;16.342;2023-07-09T13:51:44;6.47;;;5.97;;
17169;SDS011;8700;48.222;16.342;2023-07-09T13:55:09;5.60;;;5.22;;
17169;SDS011;8700;48.222;16.342;2023-07-09T13:58:40;6.15;;;5.53;;
17169;SDS011;8700;48.222;16.342;2023-07-09T14:02:12;5.97;;;5.38;;
17169;SDS011;8700;48.222;16.342;2023-07-09T14:05:41;6.30;;;5.82;;
17169;SDS011;8700;48.222;16.342;2023-07-09T14:09:08;5.82;;;5.43;;
17169;SDS011;8700;48.222;16.342;2023-07-09T14:12:30;5.38;;;5.07;;
17169;SDS011;8700;48.222;16.342;2023-07-09T14:15:52;5.63;;;5.22;;
17169;SDS011;8700;48.222;16.342;2023-07-09T14:19:14;5.90;;;5.50;;
17169;SDS011;8700;48.222;16.342;2023-07-09T14:22:36;5.90;;;5.50;;
17169;SDS011;8700;48.222;16.342;2023-07-09T14:26:00;6.72;;;5.60;;
17169;SDS011;8700;48.222;16.342;2023-07-09T14:29:22;7.13;;;6.53;;
17169;SDS011;8700;48.222;16.342;2023-07-09T14:32:44;6.20;;;5.72;;
17169;SDS011;8700;48.222;16.342;2023-07-09T14:36:07;6.32;;;5.90;;
17169;SDS011;8700;48.222;16.342;2023-07-09T14:39:29;6.10;;;5.57;;
17169;SDS011;8700;48.222;16.342;2023-07-09T14:42:51;5.72;;;5.22;;
17169;SDS011;8700;48.222;16.342;2023-07-09T14:46:13;6.72;;;6.22;;
17169;SDS011;8700;48.222;16.342;2023-07-09T14:49:35;6.20;;;5.70;;
17169;SDS011;8700;48.222;16.342;2023-07-09T14:52:56;6.97;;;6.47;;
17169;SDS011;8700;48.222;16.342;2023-07-09T14:56:17;6.63;;;6.13;;
17169;SDS011;8700;48.222;16.342;2023-07-09T14:59:42;6.40;;;5.88;;
17169;SDS011;8700;48.222;16.342;2023-07-09T15:03:03;5.82;;;5.43;;
17169;SDS011;8700;48.222;16.342;2023-07-09T15:06:24;7.43;;;6.80;;
17169;SDS011;8700;48.222;16.342;2023-07-09T15:09:46;6.47;;;6.07;;
17169;SDS011;8700;48.222;16.342;2023-07-09T15:13:11;7.10;;;6.43;;
17169;SDS011;8700;48.222;16.342;2023-07-09T15:16:41;6.00;;;5.70;;
17169;SDS011;8700;48.222;16.342;2023-07-09T15:20:05;7.28;;;6.68;;
17169;SDS011;8700;48.222;16.342;2023-07-09T15:23:33;7.28;;;6.70;;
17169;SDS011;8700;48.222;16.342;2023-07-09T15:26:59;6.82;;;6.32;;
17169;SDS011;8700;48.222;16.342;2023-07-09T15:30:24;7.43;;;6.82;;
17169;SDS011;8700;48.222;16.342;2023-07-09T15:33:52;6.97;;;6.40;;
17169;SDS011;8700;48.222;16.342;2023-07-09T15:37:15;7.38;;;6.88;;
17169;SDS011;8700;48.222;16.342;2023-07-09T15:40:38;6.60;;;6.10;;
17169;SDS011;8700;48.222;16.342;2023-07-09T15:43:59;6.80;;;6.35;;
17169;SDS011;8700;48.222;16.342;2023-07-09T15:47:21;6.63;;;6.15;;
17169;SDS011;8700;48.222;16.342;2023-07-09T15:50:48;7.47;;;6.97;;
17169;SDS011;8700;48.222;16.342;2023-07-09T15:54:12;8.43;;;7.70;;
17169;SDS011;8700;48.222;16.342;2023-07-09T15:57:36;7.50;;;7.00;;
17169;SDS011;8700;48.222;16.342;2023-07-09T16:00:58;7.38;;;6.78;;
17169;SDS011;8700;48.222;16.342;2023-07-09T16:04:19;7.47;;;6.88;;
17169;SDS011;8700;48.222;16.342;2023-07-09T16:07:42;7.15;;;6.65;;
17169;SDS011;8700;48.222;16.342;2023-07-09T16:11:04;7.25;;;6.75;;
17169;SDS011;8700;48.222;16.342;2023-07-09T16:14:30;7.28;;;6.88;;
17169;SDS011;8700;48.222;16.342;2023-07-09T16:17:55;7.55;;;6.95;;
17169;SDS011;8700;48.222;16.342;2023-07-09T16:21:22;7.60;;;7.00;;
17169;SDS011;8700;48.222;16.342;2023-07-09T16:24:48;7.78;;;7.18;;
17169;SDS011;8700;48.222;16.342;2023-07-09T16:28:11;14.70;;;7.10;;
17169;SDS011;8700;48.222;16.342;2023-07-09T16:31:34;7.28;;;6.78;;
17169;SDS011;8700;48.222;16.342;2023-07-09T16:34:55;8.20;;;7.60;;
17169;SDS011;8700;48.222;16.342;2023-07-09T16:38:19;7.43;;;6.93;;
17169;SDS011;8700;48.222;16.342;2023-07-09T16:41:42;7.93;;;7.32;;
17169;SDS011;8700;48.222;16.342;2023-07-09T16:45:03;8.43;;;7.75;;
17169;SDS011;8700;48.222;16.342;2023-07-09T16:48:25;8.63;;;8.02;;
17169;SDS011;8700;48.222;16.342;2023-07-09T16:51:49;9.32;;;8.70;;
17169;SDS011;8700;48.222;16.342;2023-07-09T16:55:18;10.43;;;9.23;;
17169;SDS011;8700;48.222;16.342;2023-07-09T16:58:47;8.25;;;7.65;;
17169;SDS011;8700;48.222;16.342;2023-07-09T17:02:20;8.15;;;7.55;;
17169;SDS011;8700;48.222;16.342;2023-07-09T17:05:45;7.47;;;6.88;;
17169;SDS011;8700;48.222;16.342;2023-07-09T17:09:06;8.57;;;7.95;;
17169;SDS011;8700;48.222;16.342;2023-07-09T17:12:28;9.65;;;8.95;;
17169;SDS011;8700;48.222;16.342;2023-07-09T17:15:53;8.15;;;7.55;;
17169;SDS011;8700;48.222;16.342;2023-07-09T17:19:15;7.70;;;7.20;;
17169;SDS011;8700;48.222;16.342;2023-07-09T17:22:37;8.20;;;7.50;;
17169;SDS011;8700;48.222;16.342;2023-07-09T17:25:59;8.10;;;7.57;;
17169;SDS011;8700;48.222;16.342;2023-07-09T17:29:20;7.55;;;7.05;;
17169;SDS011;8700;48.222;16.342;2023-07-09T17:32:43;9.40;;;8.68;;
17169;SDS011;8700;48.222;16.342;2023-07-09T17:36:07;8.20;;;7.63;;
17169;SDS011;8700;48.222;16.342;2023-07-09T17:39:32;8.52;;;7.93;;
17169;SDS011;8700;48.222;16.342;2023-07-09T17:42:54;9.93;;;9.20;;
17169;SDS011;8700;48.222;16.342;2023-07-09T17:46:16;8.88;;;8.18;;
17169;SDS011;8700;48.222;16.342;2023-07-09T17:49:39;8.43;;;7.80;;
17169;SDS011;8700;48.222;16.342;2023-07-09T17:53:00;8.95;;;8.32;;
17169;SDS011;8700;48.222;16.342;2023-07-09T17:56:22;9.30;;;8.45;;
17169;SDS011;8700;48.222;16.342;2023-07-09T17:59:44;9.57;;;8.70;;
17169;SDS011;8700;48.222;16.342;2023-07-09T18:03:07;9.15;;;8.35;;
17169;SDS011;8700;48.222;16.342;2023-07-09T18:06:34;9.15;;;8.45;;
17169;SDS011;8700;48.222;16.342;2023-07-09T18:09:57;9.05;;;8.45;;
17169;SDS011;8700;48.222;16.342;2023-07-09T18:13:20;10.10;;;9.40;;
17169;SDS011;8700;48.222;16.342;2023-07-09T18:16:45;10.73;;;10.02;;
17169;SDS011;8700;48.222;16.342;2023-07-09T18:20:07;10.48;;;9.70;;
17169;SDS011;8700;48.222;16.342;2023-07-09T18:23:39;11.18;;;10.27;;
17169;SDS011;8700;48.222;16.342;2023-07-09T18:27:01;10.50;;;9.77;;
17169;SDS011;8700;48.222;16.342;2023-07-09T18:30:23;11.13;;;10.32;;
17169;SDS011;8700;48.222;16.342;2023-07-09T18:33:46;10.82;;;9.93;;
17169;SDS011;8700;48.222;16.342;2023-07-09T18:37:08;11.57;;;10.57;;
17169;SDS011;8700;48.222;16.342;2023-07-09T18:40:34;10.27;;;9.57;;
17169;SDS011;8700;48.222;16.342;2023-07-09T18:43:58;10.93;;;10.02;;
17169;SDS011;8700;48.222;16.342;2023-07-09T18:47:19;10.48;;;9.57;;
17169;SDS011;8700;48.222;16.342;2023-07-09T18:50:41;10.45;;;9.60;;
17169;SDS011;8700;48.222;16.342;2023-07-09T18:54:13;10.10;;;9.32;;
17169;SDS011;8700;48.222;16.342;2023-07-09T18:57:38;11.98;;;10.27;;
17169;SDS011;8700;48.222;16.342;2023-07-09T19:00:59;10.70;;;10.00;;
17169;SDS011;8700;48.222;16.342;2023-07-09T19:04:24;11.93;;;11.13;;
17169;SDS011;8700;48.222;16.342;2023-07-09T19:07:50;11.43;;;10.52;;
17169;SDS011;8700;48.222;16.342;2023-07-09T19:11:12;11.50;;;10.43;;
17169;SDS011;8700;48.222;16.342;2023-07-09T19:14:35;11.88;;;11.10;;
17169;SDS011;8700;48.222;16.342;2023-07-09T19:17:57;12.23;;;11.23;;
17169;SDS011;8700;48.222;16.342;2023-07-09T19:21:20;13.27;;;12.07;;
17169;SDS011;8700;48.222;16.342;2023-07-09T19:24:42;12.57;;;11.57;;
17169;SDS011;8700;48.222;16.342;2023-07-09T19:28:04;13.23;;;11.90;;
17169;SDS011;8700;48.222;16.342;2023-07-09T19:31:27;12.57;;;11.68;;
17169;SDS011;8700;48.222;16.342;2023-07-09T19:34:52;15.05;;;13.85;;
17169;SDS011;8700;48.222;16.342;2023-07-09T19:38:15;13.63;;;12.43;;
17169;SDS011;8700;48.222;16.342;2023-07-09T19:41:37;13.68;;;12.50;;
17169;SDS011;8700;48.222;16.342;2023-07-09T19:44:58;13.18;;;12.20;;
17169;SDS011;8700;48.222;16.342;2023-07-09T19:48:22;13.73;;;12.73;;
17169;SDS011;8700;48.222;16.342;2023-07-09T19:51:49;13.43;;;12.43;;
17169;SDS011;8700;48.222;16.342;2023-07-09T19:55:14;13.77;;;12.73;;
17169;SDS011;8700;48.222;16.342;2023-07-09T19:58:38;13.25;;;12.27;;
17169;SDS011;8700;48.222;16.342;2023-07-09T20:02:00;13.52;;;12.52;;
17169;SDS011;8700;48.222;16.342;2023-07-09T20:05:24;13.85;;;12.82;;
17169;SDS011;8700;48.222;16.342;2023-07-09T20:08:48;13.65;;;12.55;;
17169;SDS011;8700;48.222;16.342;2023-07-09T20:12:12;13.75;;;12.75;;
17169;SDS011;8700;48.222;16.342;2023-07-09T20:15:38;14.25;;;13.18;;
17169;SDS011;8700;48.222;16.342;2023-07-09T20:19:04;13.75;;;12.60;;
17169;SDS011;8700;48.222;16.342;2023-07-09T20:22:31;13.10;;;12.10;;
17169;SDS011;8700;48.222;16.342;2023-07-09T20:25:56;12.85;;;11.65;;
17169;SDS011;8700;48.222;16.342;2023-07-09T20:29:18;12.85;;;11.85;;